Time;durP1;ratioP1;P1;durP2;ratioP2;P2;SDS_P1;SDS_P2;PMS_P1;PMS_P2;Temp;Humidity;BMP_temperature;BMP_pressure;BME280_temperature;BME280_humidity;BME280_pressure;Samples;Min_cycle;Max_cycle;Signal;HPM_P1;HPM_P2
2022/02/08 05:43:24;;;;;;;;;;;;;;;2.76;85.09;101048.75;5052075;23;19927;-85
2022/02/08 05:48:25;;;;;;;;;;;;;;;2.88;84.50;101063.69;4934367;29;19934;-84
2022/02/08 05:51:04;;;;;;;;;;;;;;;2.73;84.46;101064.44;4934763;29;19923;-86
2022/02/08 05:53:32;;;;;;;;;;;;;;;2.72;84.46;101065.28;4934136;29;19930;-84
2022/02/08 05:55:57;;;;;;;;;;;;;;;2.72;84.20;101070.53;4933322;29;19926;-83
2022/02/08 05:58:23;;;;;;;;;;;;;;;2.68;84.17;101066.09;4934221;29;19918;-88
2022/02/08 06:00:49;;;;;;;;;;;;;;;2.67;84.31;101065.25;4934633;29;20374;-86
2022/02/08 06:03:15;;;;;;;;;;;;;;;2.68;84.07;101072.25;4917262;29;20370;-87
2022/02/08 06:05:40;;;;;;;;;;;;;;;2.71;84.10;101074.00;4934270;29;19966;-89
2022/02/08 06:08:06;;;;;;;;;;;;;;;2.76;84.29;101071.44;4934441;29;19978;-91
2022/02/08 06:10:32;;;;;;;;;;;;;;;2.77;83.97;101078.44;4933953;29;19923;-87
2022/02/08 06:12:58;;;;;;;;;;;;;;;2.67;83.64;101080.94;4917330;29;20267;-88
2022/02/08 06:15:25;;;;;;;;;;;;;;;2.70;83.33;101075.75;4920662;29;19919;-89
2022/02/08 06:17:51;;;;;;;;;;;;;;;2.73;83.22;101081.00;4937658;29;19923;-90
2022/02/08 06:20:18;;;;;;;;;;;;;;;2.69;83.14;101084.44;4920689;29;20318;-87
2022/02/08 06:22:44;;;;;;;;;;;;;;;2.70;83.09;101088.84;4920463;29;20385;-89
2022/02/08 06:25:12;;;;;;;;;;;;;;;2.69;83.03;101087.06;4937580;29;19927;-91
2022/02/08 06:27:39;;;;;;;;;;;;;;;2.74;82.68;101087.13;4935665;29;20010;-84
2022/02/08 06:30:05;;;;;;;;;;;;;;;2.71;82.59;101085.38;4937345;29;19953;-84
2022/02/08 06:32:32;;;;;;;;;;;;;;;2.67;83.09;101087.94;4937629;29;19969;-84
2022/02/08 06:34:59;;;;;;;;;;;;;;;2.89;86.74;101083.78;4936910;29;19923;-84
2022/02/08 06:37:27;;;;;;;;;;;;;;;2.97;87.61;101084.72;4937090;29;19919;-84
2022/02/08 06:39:52;;;;;;;;;;;;;;;2.92;87.97;101081.19;4937645;29;20274;-84
2022/02/08 06:42:17;;;;;;;;;;;;;;;3.22;90.96;101090.16;4935467;29;19922;-87
2022/02/08 06:44:43;;;;;;;;;;;;;;;3.32;92.54;101085.88;4936355;29;19934;-87
2022/02/08 06:47:08;;;;;;;;;;;;;;;3.21;92.49;101086.69;4936889;29;19931;-86
2022/02/08 06:49:34;;;;;;;;;;;;;;;3.23;92.56;101076.22;4936399;29;20440;-86
2022/02/08 06:51:59;;;;;;;;;;;;;;;3.17;92.60;101084.03;4937596;29;19925;-85
2022/02/08 06:54:24;;;;;;;;;;;;;;;3.14;93.11;101086.59;4936904;29;19918;-85
2022/02/08 06:56:50;;;;;;;;;;;;;;;3.12;93.06;101104.06;4935647;29;19923;-85
2022/02/08 06:59:17;;;;;;;;;;;;;;;3.07;92.62;101096.16;4919737;29;19923;-86
2022/02/08 07:01:44;;;;;;;;;;;;;;;3.04;92.30;101102.25;4919771;29;19930;-87
2022/02/08 07:04:14;;;;;;;;;;;;;;;2.99;92.03;101093.47;4936921;29;19945;-87
2022/02/08 07:06:39;;;;;;;;;;;;;;;3.06;91.85;101100.53;4936238;29;20006;-88
2022/02/08 07:09:05;;;;;;;;;;;;;;;3.04;91.41;101101.38;4936872;29;19962;-88
2022/02/08 07:11:30;;;;;;;;;;;;;;;3.07;91.12;101098.78;4935397;29;19923;-85
2022/02/08 07:13:57;;;;;;;;;;;;;;;3.04;90.77;101091.75;4936460;29;20005;-87
2022/02/08 07:16:22;;;;;;;;;;;;;;;3.01;90.34;101101.34;4936678;29;20386;-84
2022/02/08 07:18:48;;;;;;;;;;;;;;;3.00;89.93;101100.47;4936735;29;19950;-87
2022/02/08 07:21:13;;;;;;;;;;;;;;;3.02;89.52;101090.88;4919487;29;19919;-84
2022/02/08 07:23:39;;;;;;;;;;;;;;;3.01;88.97;101091.72;4936226;29;19926;-85
2022/02/08 07:26:04;;;;;;;;;;;;;;;3.06;89.00;101097.91;4934802;29;20393;-86
2022/02/08 07:28:30;;;;;;;;;;;;;;;2.94;88.61;101100.41;4936311;29;20454;-85
2022/02/08 07:31:02;;;;;;;;;;;;;;;2.98;88.14;101107.41;4936429;29;19929;-85
2022/02/08 07:33:28;;;;;;;;;;;;;;;2.99;87.64;101114.41;4936266;29;19919;-86
2022/02/08 07:36:06;;;;;;;;;;;;;;;2.91;86.99;101110.84;4936591;29;20464;-84
2022/02/08 07:38:36;;;;;;;;;;;;;;;2.96;86.70;101101.28;4935453;29;19919;-83
2022/02/08 07:43:27;;;;;;;;;;;;;;;2.95;86.08;101112.63;4935565;29;19922;-83
2022/02/08 07:45:53;;;;;;;;;;;;;;;2.93;85.76;101119.59;4936221;29;19970;-83
2022/02/08 08:57:02;;;;;;;;;;;;;;;3.01;81.14;101133.63;5313107;23;21034;-86
2022/02/08 08:59:27;;;;;;;;;;;;;;;3.01;80.79;101138.88;4915293;29;19923;-87
2022/02/08 09:01:52;;;;;;;;;;;;;;;3.02;80.49;101135.41;4897763;29;19923;-87
2022/02/08 09:04:19;;;;;;;;;;;;;;;2.98;80.38;101133.59;4898706;29;19934;-84
2022/02/08 09:06:46;;;;;;;;;;;;;;;3.03;80.33;101129.31;4915351;29;21164;-84
2022/02/08 09:09:14;;;;;;;;;;;;;;;3.06;79.99;101134.59;4898735;29;19931;-85
2022/02/08 09:14:43;;;;;;;;;;;;;;;3.05;79.93;101142.41;4915104;29;20389;-86
2022/02/08 09:22:58;;;;;;;;;;;;;;;3.04;79.21;101138.91;4915520;29;20515;-84
2022/02/08 09:28:13;;;;;;;;;;;;;;;3.07;79.00;101138.94;4915451;29;20910;-83
2022/02/08 09:30:44;;;;;;;;;;;;;;;3.08;79.06;101147.69;4914778;29;19924;-83
2022/02/08 09:33:10;;;;;;;;;;;;;;;3.09;79.05;101152.94;4915020;29;19974;-83
2022/02/08 09:35:35;;;;;;;;;;;;;;;3.15;79.18;101146.00;4915235;29;20370;-86
2022/02/08 09:38:01;;;;;;;;;;;;;;;3.10;78.85;101148.56;4915631;29;19923;-84
2022/02/08 09:40:26;;;;;;;;;;;;;;;3.16;78.67;101150.34;4914391;29;19919;-83
2022/02/08 09:42:53;;;;;;;;;;;;;;;3.11;78.52;101139.84;4898303;29;20066;-84
2022/02/08 09:45:20;;;;;;;;;;;;;;;3.13;78.60;101151.22;4914995;29;19962;-87
2022/02/08 09:50:27;;;;;;;;;;;;;;;3.18;78.51;101148.66;4918619;29;19927;-84
2022/02/08 09:52:56;;;;;;;;;;;;;;;3.17;78.39;101144.25;4917319;29;19919;-85
2022/02/08 09:55:21;;;;;;;;;;;;;;;3.20;78.28;101150.41;4900751;29;19930;-87
2022/02/08 09:57:47;;;;;;;;;;;;;;;3.21;78.17;101146.06;4924941;29;19929;-84
2022/02/08 10:00:13;;;;;;;;;;;;;;;3.22;77.94;101150.41;4921044;29;19958;-86
2022/02/08 10:02:38;;;;;;;;;;;;;;;3.22;77.69;101147.78;4937808;29;20453;-84
2022/02/08 10:05:04;;;;;;;;;;;;;;;3.23;77.73;101142.56;4920727;29;19978;-82
2022/02/08 10:07:33;;;;;;;;;;;;;;;3.26;77.62;101144.34;4937011;29;19922;-86
2022/02/08 10:10:03;;;;;;;;;;;;;;;3.29;77.70;101133.91;4936884;29;20289;-86
2022/02/08 10:13:00;;;;;;;;;;;;;;;3.27;77.57;101135.59;4936303;29;20044;-83
2022/02/08 10:23:49;;;;;;;;;;;;;;;3.30;77.17;101127.78;4936745;29;19929;-85
2022/02/08 10:26:23;;;;;;;;;;;;;;;3.34;76.95;101126.94;4935951;29;19923;-84
2022/02/08 10:28:57;;;;;;;;;;;;;;;3.36;76.87;101130.44;4936845;29;19938;-83
2022/02/08 10:31:58;;;;;;;;;;;;;;;3.34;76.57;101126.94;4937310;29;19969;-84
2022/02/08 10:39:57;;;;;;;;;;;;;;;3.39;76.31;101130.47;4936831;29;19929;-86
2022/02/08 10:42:22;;;;;;;;;;;;;;;3.38;76.06;101133.97;4935906;29;19914;-83
2022/02/08 10:44:48;;;;;;;;;;;;;;;3.40;75.88;101132.25;4936577;29;20025;-85
2022/02/08 10:47:13;;;;;;;;;;;;;;;3.42;75.87;101129.63;4937283;29;20013;-83
2022/02/08 10:49:39;;;;;;;;;;;;;;;3.42;75.91;101127.03;4937099;29;19930;-84
2022/02/08 10:52:08;;;;;;;;;;;;;;;3.42;75.74;101130.50;4937266;29;19946;-85
2022/02/08 10:54:43;;;;;;;;;;;;;;;3.42;75.64;101117.41;4936365;29;20444;-84
2022/02/08 10:57:14;;;;;;;;;;;;;;;3.42;75.44;101125.25;4935080;29;19934;-86
2022/02/08 11:00:03;;;;;;;;;;;;;;;3.46;75.28;101120.91;4935720;29;19978;-84
2022/02/08 11:02:41;;;;;;;;;;;;;;;3.47;75.43;101117.44;4936547;29;20082;-86
2022/02/08 11:05:38;;;;;;;;;;;;;;;3.50;75.22;101117.47;4935814;29;20021;-83
2022/02/08 11:11:28;;;;;;;;;;;;;;;3.52;74.87;101112.22;4876674;29;19923;-86
2022/02/08 11:16:32;;;;;;;;;;;;;;;3.57;75.09;101113.13;4935935;29;20417;-87
2022/02/08 11:21:45;;;;;;;;;;;;;;;3.59;74.65;101109.69;4936468;29;20038;-84
2022/02/08 11:24:23;;;;;;;;;;;;;;;3.61;74.60;101107.06;4919405;29;19958;-83
2022/02/08 11:26:55;;;;;;;;;;;;;;;3.64;74.65;101101.84;4934651;29;19930;-85
2022/02/08 11:29:27;;;;;;;;;;;;;;;3.66;74.61;101092.25;4918936;29;19993;-84
2022/02/08 11:32:05;;;;;;;;;;;;;;;3.66;74.66;101100.09;4934542;29;20439;-84
2022/02/08 11:48:48;;;;;;;;;;;;;;;3.74;74.35;101095.78;4935584;29;20013;-84
2022/02/08 11:54:30;;;;;;;;;;;;;;;3.78;74.17;101101.91;4935481;29;20401;-83
2022/02/08 12:07:28;;;;;;;;;;;;;;;3.91;73.86;101087.13;4935579;29;19929;-86
2022/02/08 12:10:02;;;;;;;;;;;;;;;3.95;74.04;101092.38;4918437;29;20005;-86
2022/02/08 12:53:57;;;;;;;;;;;;;;;5.39;94.37;101037.50;4934855;29;19919;-85
2022/02/08 13:03:54;;;;;;;;;;;;;;;4.83;96.04;101034.91;4934901;29;20010;-86
2022/02/08 13:24:47;;;;;;;;;;;;;;;5.20;100.00;101029.66;4865544;29;19928;-88
2022/02/08 14:01:46;;;;;;;;;;;;;;;6.33;100.00;101005.63;4934388;29;19965;-88
2022/02/08 14:07:04;;;;;;;;;;;;;;;6.40;100.00;101001.19;4932985;29;19930;-85
2022/02/08 14:22:16;;;;;;;;;;;;;;;6.65;100.00;101000.16;4933340;29;19925;-86
2022/02/08 14:25:04;;;;;;;;;;;;;;;6.70;100.00;100995.72;4916672;29;20057;-85
2022/02/08 14:30:24;;;;;;;;;;;;;;;4.12;100.00;101012.91;4933995;29;20396;-85
2022/02/08 14:33:06;;;;;;;;;;;;;;;3.32;100.00;101008.16;4933888;29;19918;-83
2022/02/08 14:35:50;;;;;;;;;;;;;;;3.04;100.00;101007.97;4937561;29;20279;-86
2022/02/08 14:49:58;;;;;;;;;;;;;;;2.21;98.67;101022.03;4936661;29;19945;-86
2022/02/08 15:05:48;;;;;;;;;;;;;;;1.53;94.82;101023.78;4936985;29;19981;-86
2022/02/08 15:08:17;;;;;;;;;;;;;;;1.45;94.00;101035.03;4936227;29;19926;-86
2022/02/08 15:10:51;;;;;;;;;;;;;;;1.47;94.39;101034.16;4935419;29;20263;-86
2022/02/08 15:13:20;;;;;;;;;;;;;;;1.83;96.73;101031.16;4934558;29;19961;-86
2022/02/08 15:18:13;;;;;;;;;;;;;;;2.26;100.00;101021.22;4934616;29;20371;-86
2022/02/08 15:20:38;;;;;;;;;;;;;;;2.49;100.00;101015.31;4935494;29;19938;-87
2022/02/08 15:23:07;;;;;;;;;;;;;;;2.53;100.00;101010.16;4935718;29;19930;-85
2022/02/08 15:25:33;;;;;;;;;;;;;;;2.57;100.00;101010.19;4935352;29;19989;-87
2022/02/08 15:28:02;;;;;;;;;;;;;;;2.57;100.00;101016.31;4936454;29;20370;-85
2022/02/08 15:30:32;;;;;;;;;;;;;;;2.65;100.00;101012.03;4917596;29;19930;-86
2022/02/08 15:32:58;;;;;;;;;;;;;;;2.72;100.00;101021.66;4935875;29;19925;-87
2022/02/08 15:35:23;;;;;;;;;;;;;;;2.71;100.00;101019.94;4934210;29;19931;-85
2022/02/08 15:37:50;;;;;;;;;;;;;;;2.76;100.00;101021.69;4915214;29;19950;-86
2022/02/08 15:40:16;;;;;;;;;;;;;;;2.72;100.00;101029.50;4916697;29;20013;-85
2022/02/08 15:42:41;;;;;;;;;;;;;;;2.75;100.00;101035.66;4935873;29;20009;-83
2022/02/08 15:45:19;;;;;;;;;;;;;;;2.84;100.00;101033.09;4917384;29;19965;-86
2022/02/08 15:47:44;;;;;;;;;;;;;;;2.80;100.00;101032.22;4935570;29;19922;-85
2022/02/08 15:50:15;;;;;;;;;;;;;;;2.90;100.00;101034.06;4934012;29;19950;-86
2022/02/08 15:55:36;;;;;;;;;;;;;;;2.87;100.00;101030.50;4933079;29;19930;-82
2022/02/08 16:06:10;;;;;;;;;;;;;;;2.82;100.00;101038.31;4935725;29;20131;-85
2022/02/08 16:08:47;;;;;;;;;;;;;;;2.76;100.00;101030.44;4932927;29;19927;-86
2022/02/08 16:14:11;;;;;;;;;;;;;;;2.91;100.00;101037.53;4934434;29;19922;-84
2022/02/08 16:24:28;;;;;;;;;;;;;;;2.98;98.95;101039.34;4933013;29;19938;-86
2022/02/08 16:52:01;;;;;;;;;;;;;;;3.03;89.49;101035.03;4932259;29;19929;-84
2022/02/08 16:53:42;;;;;;;;;;;;;;;3.03;88.88;101040.28;4933155;29;19982;-85
2022/02/08 16:56:14;;;;;;;;;;;;;;;3.02;88.62;101041.13;4933771;29;19925;-86
2022/02/08 16:58:50;;;;;;;;;;;;;;;3.08;88.38;101050.78;4925810;29;19922;-85
2022/02/08 17:01:19;;;;;;;;;;;;;;;3.03;87.87;101042.91;4932506;29;19969;-84
2022/02/08 17:03:46;;;;;;;;;;;;;;;3.02;87.52;101048.97;4933136;29;20473;-87
2022/02/08 17:06:13;;;;;;;;;;;;;;;3.05;87.34;101051.63;4933991;29;20278;-88
2022/02/08 17:08:38;;;;;;;;;;;;;;;3.05;87.12;101046.38;4933368;29;20074;-86
2022/02/08 17:11:04;;;;;;;;;;;;;;;3.01;86.93;101046.34;4932286;29;20017;-87
2022/02/08 17:47:49;;;;;;;;;;;;;;;3.00;84.67;101047.19;4934753;29;19947;-87
2022/02/08 17:50:16;;;;;;;;;;;;;;;3.02;84.37;101055.97;4934382;29;19919;-88
2022/02/08 17:52:45;;;;;;;;;;;;;;;3.00;84.25;101058.56;4933503;29;19929;-87
2022/02/08 17:55:11;;;;;;;;;;;;;;;3.01;84.10;101057.69;4946974;28;20396;-85
2022/02/08 17:57:36;;;;;;;;;;;;;;;2.99;84.13;101061.19;4947933;28;19922;-87
2022/02/08 18:00:03;;;;;;;;;;;;;;;3.01;84.13;101052.44;4934423;29;20378;-83
2022/02/08 18:02:28;;;;;;;;;;;;;;;3.02;83.95;101050.72;4933057;29;19927;-87
2022/02/08 18:04:53;;;;;;;;;;;;;;;2.99;83.68;101055.94;4933690;29;19941;-86
2022/02/08 18:07:21;;;;;;;;;;;;;;;2.98;83.49;101049.81;4934351;29;19985;-87
2022/02/08 18:09:48;;;;;;;;;;;;;;;3.00;83.27;101063.81;4937079;29;19919;-87
2022/02/08 18:12:14;;;;;;;;;;;;;;;3.02;83.40;101067.31;4936778;29;19946;-87
2022/02/08 18:14:43;;;;;;;;;;;;;;;3.00;83.33;101066.44;4937906;29;19923;-87
2022/02/08 18:17:16;;;;;;;;;;;;;;;3.02;83.27;101069.94;4935104;29;20297;-85
2022/02/08 18:19:48;;;;;;;;;;;;;;;3.05;83.11;101056.88;4937591;29;20009;-85
2022/02/08 18:22:33;;;;;;;;;;;;;;;3.03;82.87;101047.22;4936459;29;19923;-85
2022/02/08 18:58:01;;;;;;;;;;;;;;;3.16;81.92;101069.16;4936243;29;20338;-85
2022/02/08 19:07:04;;;;;;;;;;;;;;;3.19;81.46;101058.69;4850554;29;20000;-85
2022/02/08 19:12:00;;;;;;;;;;;;;;;3.18;81.12;101060.47;4935025;29;20275;-87
2022/02/08 19:17:12;;;;;;;;;;;;;;;3.22;80.96;101063.97;4936502;29;20018;-86
2022/02/08 19:19:45;;;;;;;;;;;;;;;3.22;80.61;101063.97;4935377;29;20005;-89
2022/02/08 19:22:11;;;;;;;;;;;;;;;3.24;80.50;101067.50;4936355;29;19914;-88
2022/02/08 19:24:36;;;;;;;;;;;;;;;3.22;80.31;101070.09;4936604;29;19923;-86
2022/02/08 19:27:02;;;;;;;;;;;;;;;3.26;80.13;101071.00;4935298;29;19926;-87
2022/02/08 19:29:34;;;;;;;;;;;;;;;3.26;80.02;101066.63;4919264;29;19929;-88
2022/02/08 19:32:00;;;;;;;;;;;;;;;3.33;79.92;101057.06;4935976;29;19919;-84
2022/02/08 19:34:25;;;;;;;;;;;;;;;3.28;79.69;101058.78;4919461;29;19930;-87
2022/02/08 19:36:52;;;;;;;;;;;;;;;3.31;79.50;101057.94;4936262;29;19941;-87
2022/02/08 19:39:18;;;;;;;;;;;;;;;3.30;79.42;101061.41;4919504;29;19922;-86
2022/02/08 19:41:44;;;;;;;;;;;;;;;3.37;79.36;101066.72;4931739;29;20386;-85
2022/02/08 19:44:09;;;;;;;;;;;;;;;3.30;79.16;101049.19;4936166;29;19929;-88
2022/02/08 19:46:35;;;;;;;;;;;;;;;3.34;79.03;101050.97;4918988;29;19925;-88
2022/02/08 19:49:02;;;;;;;;;;;;;;;3.37;78.92;101052.75;4936011;29;20034;-85
2022/02/08 19:51:27;;;;;;;;;;;;;;;3.34;78.62;101056.22;4918807;29;19969;-85
2022/02/08 19:53:55;;;;;;;;;;;;;;;3.36;78.58;101051.84;4935966;29;19988;-86
2022/02/08 19:56:27;;;;;;;;;;;;;;;3.42;78.44;101051.03;4917716;29;20029;-86
2022/02/08 19:58:56;;;;;;;;;;;;;;;3.37;78.19;101058.00;4934855;29;19923;-86
2022/02/08 20:01:29;;;;;;;;;;;;;;;3.40;78.23;101043.16;4935325;29;19947;-87
2022/02/08 20:04:00;;;;;;;;;;;;;;;3.40;78.05;101053.63;4934122;29;19922;-87
2022/02/08 20:06:26;;;;;;;;;;;;;;;3.40;77.88;101043.16;4935803;29;20014;-84
2022/02/08 20:08:52;;;;;;;;;;;;;;;3.44;77.82;101042.28;4934853;29;19979;-85
2022/02/08 20:11:17;;;;;;;;;;;;;;;3.43;77.83;101044.91;4934251;29;19930;-85
2022/02/08 20:13:51;;;;;;;;;;;;;;;3.45;77.84;101044.06;4934129;29;20405;-86
2022/02/08 20:16:17;;;;;;;;;;;;;;;3.45;77.94;101046.69;4934758;29;19919;-83
2022/02/08 20:18:46;;;;;;;;;;;;;;;3.48;77.91;101048.44;4934593;29;20045;-84
2022/02/08 20:21:11;;;;;;;;;;;;;;;3.51;77.95;101051.09;4935333;29;19919;-85
2022/02/08 20:23:37;;;;;;;;;;;;;;;3.50;77.70;101053.69;4934559;29;19998;-86
2022/02/08 20:26:04;;;;;;;;;;;;;;;3.52;77.81;101051.97;4934250;29;20017;-87
2022/02/08 20:28:49;;;;;;;;;;;;;;;3.56;77.63;101048.50;4935389;29;20371;-86
2022/02/08 20:31:15;;;;;;;;;;;;;;;3.53;77.54;101041.50;4935117;29;20009;-87
2022/02/08 20:33:41;;;;;;;;;;;;;;;3.55;77.40;101036.25;4918155;29;19929;-85
2022/02/08 20:36:06;;;;;;;;;;;;;;;3.57;77.15;101039.75;4918220;29;20001;-86
2022/02/08 20:38:32;;;;;;;;;;;;;;;3.60;77.28;101051.13;4934504;29;20390;-85
2022/02/08 20:40:57;;;;;;;;;;;;;;;3.63;77.34;101040.66;4934427;29;19930;-87
2022/02/08 20:43:22;;;;;;;;;;;;;;;3.60;77.25;101035.41;4934419;29;19922;-85
2022/02/08 20:45:49;;;;;;;;;;;;;;;3.66;77.10;101033.69;4934265;29;19973;-84
2022/02/08 20:48:15;;;;;;;;;;;;;;;3.64;77.33;101037.19;4934974;29;19923;-87
2022/02/08 20:50:41;;;;;;;;;;;;;;;3.68;77.31;101043.31;4917976;29;20271;-88
2022/02/08 20:53:09;;;;;;;;;;;;;;;3.68;76.88;101047.69;4934549;29;19930;-86
2022/02/08 20:55:43;;;;;;;;;;;;;;;3.72;76.87;101044.19;4933622;29;19948;-83
2022/02/08 20:58:22;;;;;;;;;;;;;;;3.72;76.90;101042.47;4934635;29;20286;-87
2022/02/08 21:00:48;;;;;;;;;;;;;;;3.71;76.67;101051.19;4933795;29;19927;-83
2022/02/08 21:05:49;;;;;;;;;;;;;;;3.76;76.61;101051.22;4934874;29;20397;-85
2022/02/08 21:08:16;;;;;;;;;;;;;;;3.80;76.59;101053.00;4917312;29;19926;-87
2022/02/08 21:10:47;;;;;;;;;;;;;;;3.81;76.65;101050.38;4933619;29;19918;-85
2022/02/08 21:13:15;;;;;;;;;;;;;;;3.84;76.49;101060.00;4934295;29;20025;-84
2022/02/08 21:15:41;;;;;;;;;;;;;;;3.86;76.65;101047.78;4934517;29;20410;-86
2022/02/08 21:18:07;;;;;;;;;;;;;;;3.87;76.48;101056.53;4916718;29;19986;-88
2022/02/08 21:20:32;;;;;;;;;;;;;;;3.90;76.63;101054.78;4933953;29;19926;-88
2022/02/08 21:22:57;;;;;;;;;;;;;;;3.89;76.53;101052.16;4933720;29;19982;-87
2022/02/08 21:25:22;;;;;;;;;;;;;;;3.92;76.45;101052.16;4916499;29;19922;-88
2022/02/08 21:27:58;;;;;;;;;;;;;;;3.92;76.30;101042.53;4934529;29;20445;-88
2022/02/08 21:44:27;;;;;;;;;;;;;;;4.06;76.21;101034.75;4934193;29;19954;-87
2022/02/08 21:49:40;;;;;;;;;;;;;;;4.12;76.66;101040.03;4938334;29;19919;-88
2022/02/08 21:54:34;;;;;;;;;;;;;;;4.22;76.81;101050.56;4936836;29;19929;-88
2022/02/08 21:57:00;;;;;;;;;;;;;;;4.21;77.02;101049.66;4920245;29;20279;-88
2022/02/08 21:59:26;;;;;;;;;;;;;;;4.22;76.85;101040.91;4938341;29;19970;-86
2022/02/08 22:01:52;;;;;;;;;;;;;;;4.22;76.51;101034.81;4935537;29;19923;-89
2022/02/08 22:04:17;;;;;;;;;;;;;;;4.22;76.30;101034.81;4920948;29;20153;-87
2022/02/08 22:06:45;;;;;;;;;;;;;;;4.22;76.10;101035.66;4938204;29;19918;-84
2022/02/08 22:09:14;;;;;;;;;;;;;;;4.29;75.93;101029.59;4920962;29;19973;-84
2022/02/08 22:22:24;;;;;;;;;;;;;;;4.36;75.91;101036.59;4937149;29;19919;-83
2022/02/08 22:25:02;;;;;;;;;;;;;;;4.40;75.90;101039.22;4919427;29;20414;-84
2022/02/08 22:27:39;;;;;;;;;;;;;;;4.42;75.83;101037.47;4919443;29;19927;-84
2022/02/08 22:30:25;;;;;;;;;;;;;;;4.44;76.00;101025.25;4937166;29;19929;-84
2022/02/08 22:32:51;;;;;;;;;;;;;;;4.42;76.03;101017.38;4937517;29;19926;-84
2022/02/08 22:37:55;;;;;;;;;;;;;;;4.49;75.79;101024.38;4936271;29;20285;-85
2022/02/08 22:40:25;;;;;;;;;;;;;;;4.48;75.65;101014.75;4935972;29;19946;-83
2022/02/08 22:42:53;;;;;;;;;;;;;;;4.52;75.83;101018.25;4936999;29;19965;-87
2022/02/08 22:45:22;;;;;;;;;;;;;;;4.54;76.02;101017.38;4919625;29;20386;-82
2022/02/08 22:47:48;;;;;;;;;;;;;;;4.54;75.99;101012.13;4919562;29;19919;-84
2022/02/08 22:50:15;;;;;;;;;;;;;;;4.59;76.05;101019.13;4920107;29;19919;-84
2022/02/08 22:52:40;;;;;;;;;;;;;;;4.60;76.13;101015.66;4937171;29;19978;-84
2022/02/08 22:55:06;;;;;;;;;;;;;;;4.61;76.23;101010.41;4936623;29;19923;-85
2022/02/08 22:57:31;;;;;;;;;;;;;;;4.65;76.46;101017.38;4936154;29;19927;-86
2022/02/08 23:00:00;;;;;;;;;;;;;;;4.65;76.32;101013.91;4936557;29;19923;-83
2022/02/08 23:02:26;;;;;;;;;;;;;;;4.66;76.30;101010.38;4919985;29;19925;-88
2022/02/08 23:04:51;;;;;;;;;;;;;;;4.68;76.30;101008.66;4937055;29;20013;-86
2022/02/08 23:07:18;;;;;;;;;;;;;;;4.71;76.40;101013.91;4936562;29;19919;-82
2022/02/08 23:09:54;;;;;;;;;;;;;;;4.70;76.42;101006.91;4936687;29;19950;-81
2022/02/08 23:38:56;;;;;;;;;;;;;;;4.92;78.01;101007.78;4936261;29;19974;-83
2022/02/08 23:41:21;;;;;;;;;;;;;;;4.95;78.03;101006.91;4934250;29;19919;-82
2022/02/08 23:43:49;;;;;;;;;;;;;;;4.96;77.92;101006.03;4936267;29;20017;-86
2022/02/08 23:46:17;;;;;;;;;;;;;;;4.99;78.17;100998.13;4919045;29;19923;-83
2022/02/08 23:48:58;;;;;;;;;;;;;;;4.99;77.89;101003.41;4919064;29;19926;-82
2022/02/08 23:51:27;;;;;;;;;;;;;;;4.99;78.00;101004.25;4935483;29;20301;-83
2022/02/08 23:54:19;;;;;;;;;;;;;;;5.03;77.91;101005.16;4935355;29;19919;-82
2022/02/08 23:56:51;;;;;;;;;;;;;;;5.03;77.67;101003.41;4934196;29;20374;-84
2022/02/08 23:59:18;;;;;;;;;;;;;;;5.05;77.82;101003.41;4934884;29;19922;-85
